CYUB

Tuktoyaktuk Airport

Tuktoyaktuk, Northwest Territories, Canada
METAR CYUB 170600Z 07006KT 1 1/2SM BR OVC003 M09/M10 A2968 RMK ST8 MEDIUM PACK LAST OBS/NEXT 171400UTC SLP052
Observed Flight Rules
Jan-17 @ 06:00 UTC (5 hours ago) Instrument Flight Rules
Wind Visibility Clouds Conditions
70° at 6 knots 1 1/2 miles
  • Overcast at 300' AGL
  • Mist
Temperatures Readings
Current -9°C / 16°F
Dewpoint -10°C / 14°F
Humidity 93%
Altimeter 29.68" Hg
Pressure 1005.2 hPa
Elevation 5
METAR CYUB 170600Z 07006KT 1 1/2SM BR OVC003 M09/M10 A2968 RMK ST8 MEDIUM PACK LAST OBS/NEXT 171400UTC SLP052
Observed Flight Rules
Jan-17 @ 06:00 UTC
(5 hours ago)
LIFR
Wind Visibility
70° at 6 knots 1 1/2 miles
Clouds
  • Overcast at 300' AGL
Conditions
  • Mist
Temperature Dewpoint
-9°C / 16°F -10°C / 14°F
Humidity Altimeter Pressure
93% 29.68" Hg 1005.2 hPa